sensor_id;sensor_type;location;lat;lon;timestamp;pressure;altitude;pressure_sealevel;temperature;humidity
80624;BME280;70269;44.768;9.600;2023-05-29T00:00:06;97338.53;;;14.22;82.87
80624;BME280;70269;44.768;9.600;2023-05-29T00:02:38;97339.38;;;14.23;82.43
80624;BME280;70269;44.768;9.600;2023-05-29T00:05:03;97334.03;;;14.28;82.55
80624;BME280;70269;44.768;9.600;2023-05-29T00:07:31;97332.75;;;14.30;83.04
80624;BME280;70269;44.768;9.600;2023-05-29T00:10:00;97328.03;;;14.37;81.63
80624;BME280;70269;44.768;9.600;2023-05-29T00:12:25;97330.84;;;14.42;81.70
80624;BME280;70269;44.768;9.600;2023-05-29T00:14:51;97321.66;;;14.32;82.23
80624;BME280;70269;44.768;9.600;2023-05-29T00:17:16;97326.34;;;14.36;81.75
80624;BME280;70269;44.768;9.600;2023-05-29T00:19:43;97329.66;;;14.38;81.15
80624;BME280;70269;44.768;9.600;2023-05-29T00:22:08;97326.81;;;14.33;81.43
80624;BME280;70269;44.768;9.600;2023-05-29T00:24:34;97329.78;;;14.32;82.48
80624;BME280;70269;44.768;9.600;2023-05-29T00:26:59;97334.53;;;14.25;82.15
80624;BME280;70269;44.768;9.600;2023-05-29T00:29:26;97325.88;;;14.28;82.55
80624;BME280;70269;44.768;9.600;2023-05-29T00:31:53;97327.06;;;14.20;82.65
80624;BME280;70269;44.768;9.600;2023-05-29T00:34:22;97322.59;;;14.26;82.52
80624;BME280;70269;44.768;9.600;2023-05-29T00:36:48;97323.16;;;14.28;82.21
80624;BME280;70269;44.768;9.600;2023-05-29T00:39:14;97322.84;;;14.12;83.14
80624;BME280;70269;44.768;9.600;2023-05-29T00:41:40;97322.13;;;14.17;82.38
80624;BME280;70269;44.768;9.600;2023-05-29T00:44:05;97325.94;;;14.04;83.11
80624;BME280;70269;44.768;9.600;2023-05-29T00:46:32;97321.13;;;13.95;82.94
80624;BME280;70269;44.768;9.600;2023-05-29T00:48:59;97314.47;;;13.91;83.74
80624;BME280;70269;44.768;9.600;2023-05-29T00:51:26;97321.91;;;13.84;83.66
80624;BME280;70269;44.768;9.600;2023-05-29T00:53:52;97316.25;;;13.85;84.15
80624;BME280;70269;44.768;9.600;2023-05-29T00:56:19;97319.47;;;13.82;83.70
80624;BME280;70269;44.768;9.600;2023-05-29T00:58:48;97320.75;;;13.91;83.81
80624;BME280;70269;44.768;9.600;2023-05-29T01:01:15;97325.84;;;13.88;83.57
80624;BME280;70269;44.768;9.600;2023-05-29T01:03:42;97329.38;;;13.88;83.10
80624;BME280;70269;44.768;9.600;2023-05-29T01:06:08;97329.38;;;13.88;83.31
80624;BME280;70269;44.768;9.600;2023-05-29T01:08:35;97330.31;;;13.82;83.08
80624;BME280;70269;44.768;9.600;2023-05-29T01:13:55;97321.59;;;13.80;83.25
80624;BME280;70269;44.768;9.600;2023-05-29T01:16:38;97322.03;;;13.65;83.66
80624;BME280;70269;44.768;9.600;2023-05-29T01:19:29;97333.16;;;13.64;83.79
80624;BME280;70269;44.768;9.600;2023-05-29T01:24:58;97333.38;;;13.51;84.10
80624;BME280;70269;44.768;9.600;2023-05-29T01:27:29;97330.50;;;13.46;84.42
80624;BME280;70269;44.768;9.600;2023-05-29T01:29:55;97323.91;;;13.42;84.19
80624;BME280;70269;44.768;9.600;2023-05-29T01:32:24;97326.03;;;13.40;84.36
80624;BME280;70269;44.768;9.600;2023-05-29T01:34:51;97323.66;;;13.31;85.22
80624;BME280;70269;44.768;9.600;2023-05-29T01:37:16;97322.38;;;13.34;85.16
80624;BME280;70269;44.768;9.600;2023-05-29T01:39:42;97327.34;;;13.37;85.19
80624;BME280;70269;44.768;9.600;2023-05-29T01:42:08;97320.34;;;13.29;84.70
80624;BME280;70269;44.768;9.600;2023-05-29T01:44:35;97322.38;;;13.34;85.05
80624;BME280;70269;44.768;9.600;2023-05-29T01:47:02;97325.69;;;13.36;85.14
80624;BME280;70269;44.768;9.600;2023-05-29T01:49:28;97319.06;;;13.32;85.47
80624;BME280;70269;44.768;9.600;2023-05-29T01:51:55;97319.84;;;13.21;85.70
80624;BME280;70269;44.768;9.600;2023-05-29T01:54:21;97315.63;;;13.13;85.63
80624;BME280;70269;44.768;9.600;2023-05-29T01:56:46;97317.28;;;13.14;85.83
80624;BME280;70269;44.768;9.600;2023-05-29T01:59:13;97312.94;;;13.25;85.53
80624;BME280;70269;44.768;9.600;2023-05-29T02:01:39;97310.00;;;13.26;85.24
80624;BME280;70269;44.768;9.600;2023-05-29T02:04:05;97306.78;;;13.29;85.34
80624;BME280;70269;44.768;9.600;2023-05-29T02:06:31;97308.81;;;13.34;84.91
80624;BME280;70269;44.768;9.600;2023-05-29T02:08:58;97307.28;;;13.26;85.04
80624;BME280;70269;44.768;9.600;2023-05-29T02:11:24;97305.72;;;13.19;85.45
80624;BME280;70269;44.768;9.600;2023-05-29T02:13:51;97300.19;;;13.25;84.58
80624;BME280;70269;44.768;9.600;2023-05-29T02:16:18;97300.19;;;13.25;84.57
80624;BME280;70269;44.768;9.600;2023-05-29T02:18:46;97300.75;;;13.16;84.83
80624;BME280;70269;44.768;9.600;2023-05-29T02:21:12;97293.50;;;13.10;85.23
80624;BME280;70269;44.768;9.600;2023-05-29T02:23:38;97297.16;;;13.04;85.20
80624;BME280;70269;44.768;9.600;2023-05-29T02:26:04;97304.22;;;12.93;85.55
80624;BME280;70269;44.768;9.600;2023-05-29T02:28:29;97295.63;;;12.96;85.57
80624;BME280;70269;44.768;9.600;2023-05-29T02:30:55;97302.56;;;12.92;85.79
80624;BME280;70269;44.768;9.600;2023-05-29T02:33:21;97287.69;;;12.83;85.94
80624;BME280;70269;44.768;9.600;2023-05-29T02:35:46;97290.97;;;12.85;86.10
80624;BME280;70269;44.768;9.600;2023-05-29T02:38:12;97292.97;;;12.78;86.32
80624;BME280;70269;44.768;9.600;2023-05-29T02:40:40;97291.31;;;12.77;86.26
80624;BME280;70269;44.768;9.600;2023-05-29T02:43:05;97297.44;;;12.84;85.76
80624;BME280;70269;44.768;9.600;2023-05-29T02:45:31;97288.94;;;12.69;86.49
80624;BME280;70269;44.768;9.600;2023-05-29T02:47:59;97290.94;;;12.73;86.00
80624;BME280;70269;44.768;9.600;2023-05-29T02:50:26;97286.91;;;12.64;87.00
80624;BME280;70269;44.768;9.600;2023-05-29T02:52:51;97283.19;;;12.77;85.91
80624;BME280;70269;44.768;9.600;2023-05-29T02:55:17;97280.22;;;12.78;86.08
80624;BME280;70269;44.768;9.600;2023-05-29T02:57:43;97280.06;;;12.62;86.98
80624;BME280;70269;44.768;9.600;2023-05-29T03:00:08;97280.75;;;12.57;86.89
80624;BME280;70269;44.768;9.600;2023-05-29T03:02:34;97279.56;;;12.53;86.83
80624;BME280;70269;44.768;9.600;2023-05-29T03:05:00;97280.63;;;12.52;86.86
80624;BME280;70269;44.768;9.600;2023-05-29T03:07:26;97289.34;;;12.54;86.62
80624;BME280;70269;44.768;9.600;2023-05-29T03:09:52;97292.38;;;12.46;86.82
80624;BME280;70269;44.768;9.600;2023-05-29T03:12:17;97293.28;;;12.40;86.67
80624;BME280;70269;44.768;9.600;2023-05-29T03:14:44;97302.78;;;12.31;87.46
80624;BME280;70269;44.768;9.600;2023-05-29T03:17:11;97297.63;;;12.41;86.98
80624;BME280;70269;44.768;9.600;2023-05-29T03:19:37;97295.31;;;12.44;86.85
80624;BME280;70269;44.768;9.600;2023-05-29T03:22:04;97294.47;;;12.44;86.94
80624;BME280;70269;44.768;9.600;2023-05-29T03:24:31;97302.75;;;12.49;86.80
80624;BME280;70269;44.768;9.600;2023-05-29T03:27:01;97304.34;;;12.38;87.07
80624;BME280;70269;44.768;9.600;2023-05-29T03:29:31;97292.16;;;12.29;86.83
80624;BME280;70269;44.768;9.600;2023-05-29T03:31:57;97302.34;;;12.34;87.24
80624;BME280;70269;44.768;9.600;2023-05-29T03:34:27;97295.19;;;12.39;86.99
80624;BME280;70269;44.768;9.600;2023-05-29T03:36:57;97302.78;;;12.31;87.16
80624;BME280;70269;44.768;9.600;2023-05-29T03:39:23;97300.84;;;12.20;87.25
80624;BME280;70269;44.768;9.600;2023-05-29T03:41:49;97304.38;;;12.20;87.40
80624;BME280;70269;44.768;9.600;2023-05-29T03:44:15;97304.81;;;12.17;87.19
80624;BME280;70269;44.768;9.600;2023-05-29T03:46:40;97306.03;;;12.21;87.55
80624;BME280;70269;44.768;9.600;2023-05-29T03:49:06;97313.31;;;12.21;87.16
80624;BME280;70269;44.768;9.600;2023-05-29T03:51:33;97320.47;;;12.15;87.30
80624;BME280;70269;44.768;9.600;2023-05-29T03:53:59;97318.13;;;12.19;87.04
80624;BME280;70269;44.768;9.600;2023-05-29T03:56:25;97321.88;;;12.18;87.28
80624;BME280;70269;44.768;9.600;2023-05-29T03:58:52;97332.50;;;12.19;87.73
80624;BME280;70269;44.768;9.600;2023-05-29T04:01:18;97330.53;;;12.26;87.29
80624;BME280;70269;44.768;9.600;2023-05-29T04:03:43;97335.50;;;12.29;86.88
80624;BME280;70269;44.768;9.600;2023-05-29T04:06:10;97340.69;;;12.31;87.13
80624;BME280;70269;44.768;9.600;2023-05-29T04:08:37;97346.25;;;12.36;86.75
80624;BME280;70269;44.768;9.600;2023-05-29T04:11:02;97351.22;;;12.39;86.71
80624;BME280;70269;44.768;9.600;2023-05-29T04:13:29;97353.91;;;12.57;85.43
80624;BME280;70269;44.768;9.600;2023-05-29T04:15:54;97354.81;;;12.51;86.04
80624;BME280;70269;44.768;9.600;2023-05-29T04:18:21;97361.81;;;12.59;86.22
80624;BME280;70269;44.768;9.600;2023-05-29T04:20:47;97361.78;;;13.07;84.58
80624;BME280;70269;44.768;9.600;2023-05-29T04:23:13;97361.34;;;13.51;82.53
80624;BME280;70269;44.768;9.600;2023-05-29T04:25:39;97363.47;;;13.84;81.19
80624;BME280;70269;44.768;9.600;2023-05-29T04:28:05;97362.06;;;14.16;79.91
80624;BME280;70269;44.768;9.600;2023-05-29T04:30:31;97362.50;;;14.48;78.18
80624;BME280;70269;44.768;9.600;2023-05-29T04:32:59;97366.81;;;14.73;77.24
80624;BME280;70269;44.768;9.600;2023-05-29T04:35:25;97362.00;;;14.91;76.54
80624;BME280;70269;44.768;9.600;2023-05-29T04:37:59;97369.22;;;15.14;75.56
80624;BME280;70269;44.768;9.600;2023-05-29T04:40:29;97375.78;;;14.73;76.76
80624;BME280;70269;44.768;9.600;2023-05-29T04:42:57;97370.59;;;15.00;76.29
80624;BME280;70269;44.768;9.600;2023-05-29T04:45:29;97370.81;;;15.10;75.64
80624;BME280;70269;44.768;9.600;2023-05-29T04:47:55;97372.19;;;14.84;76.63
80624;BME280;70269;44.768;9.600;2023-05-29T04:50:21;97364.97;;;14.90;76.61
80624;BME280;70269;44.768;9.600;2023-05-29T04:52:48;97371.19;;;15.02;75.41
80624;BME280;70269;44.768;9.600;2023-05-29T04:55:14;97380.41;;;14.73;77.47
80624;BME280;70269;44.768;9.600;2023-05-29T04:57:42;97382.56;;;14.36;78.25
80624;BME280;70269;44.768;9.600;2023-05-29T05:00:09;97386.56;;;14.56;77.42
80624;BME280;70269;44.768;9.600;2023-05-29T05:02:40;97385.34;;;14.76;78.11
80624;BME280;70269;44.768;9.600;2023-05-29T05:05:07;97385.47;;;15.09;76.89
80624;BME280;70269;44.768;9.600;2023-05-29T05:07:33;97393.28;;;15.79;73.35
80624;BME280;70269;44.768;9.600;2023-05-29T05:10:00;97394.50;;;15.88;72.23
80624;BME280;70269;44.768;9.600;2023-05-29T05:12:26;97398.38;;;15.75;73.07
80624;BME280;70269;44.768;9.600;2023-05-29T05:14:52;97406.03;;;16.29;71.13
80624;BME280;70269;44.768;9.600;2023-05-29T05:17:18;97408.53;;;16.52;71.00
80624;BME280;70269;44.768;9.600;2023-05-29T05:19:45;97407.19;;;16.71;69.46
80624;BME280;70269;44.768;9.600;2023-05-29T05:22:11;97414.34;;;16.39;71.01
80624;BME280;70269;44.768;9.600;2023-05-29T05:24:37;97420.41;;;16.07;71.00
80624;BME280;70269;44.768;9.600;2023-05-29T05:27:03;97424.78;;;16.08;72.46
80624;BME280;70269;44.768;9.600;2023-05-29T05:29:29;97423.06;;;16.02;71.71
80624;BME280;70269;44.768;9.600;2023-05-29T05:31:56;97426.72;;;16.63;69.87
80624;BME280;70269;44.768;9.600;2023-05-29T05:34:22;97430.41;;;16.95;68.48
80624;BME280;70269;44.768;9.600;2023-05-29T05:36:48;97423.63;;;16.76;69.28
80624;BME280;70269;44.768;9.600;2023-05-29T05:39:14;97434.78;;;16.75;70.77
80624;BME280;70269;44.768;9.600;2023-05-29T05:41:43;97435.13;;;16.62;70.15
80624;BME280;70269;44.768;9.600;2023-05-29T05:44:12;97432.72;;;15.76;73.65
80624;BME280;70269;44.768;9.600;2023-05-29T05:46:43;97429.28;;;14.96;77.14
80624;BME280;70269;44.768;9.600;2023-05-29T05:49:09;97428.31;;;14.62;78.87
80624;BME280;70269;44.768;9.600;2023-05-29T05:51:35;97435.13;;;14.65;79.30
80624;BME280;70269;44.768;9.600;2023-05-29T05:54:00;97436.59;;;14.55;79.51
80624;BME280;70269;44.768;9.600;2023-05-29T05:56:27;97440.25;;;14.49;80.51
80624;BME280;70269;44.768;9.600;2023-05-29T05:58:52;97428.44;;;14.55;80.30
80624;BME280;70269;44.768;9.600;2023-05-29T06:01:19;97433.06;;;14.95;79.84
80624;BME280;70269;44.768;9.600;2023-05-29T06:03:45;97433.88;;;14.95;80.41
80624;BME280;70269;44.768;9.600;2023-05-29T06:06:11;97429.97;;;15.03;80.11
80624;BME280;70269;44.768;9.600;2023-05-29T06:08:39;97434.09;;;15.06;80.72
80624;BME280;70269;44.768;9.600;2023-05-29T06:11:07;97433.88;;;14.95;81.24
80624;BME280;70269;44.768;9.600;2023-05-29T06:13:35;97440.06;;;14.91;81.15
80624;BME280;70269;44.768;9.600;2023-05-29T06:16:08;97438.75;;;14.82;80.07
80624;BME280;70269;44.768;9.600;2023-05-29T06:18:34;97443.00;;;14.89;79.87
80624;BME280;70269;44.768;9.600;2023-05-29T06:21:01;97444.97;;;15.06;80.14
80624;BME280;70269;44.768;9.600;2023-05-29T06:23:26;97443.81;;;15.58;78.28
80624;BME280;70269;44.768;9.600;2023-05-29T06:25:52;97430.97;;;15.87;79.42
80624;BME280;70269;44.768;9.600;2023-05-29T06:28:19;97436.94;;;16.01;77.50
80624;BME280;70269;44.768;9.600;2023-05-29T06:30:45;97437.53;;;16.58;74.63
80624;BME280;70269;44.768;9.600;2023-05-29T06:33:11;97441.50;;;16.50;75.58
80624;BME280;70269;44.768;9.600;2023-05-29T06:35:38;97435.47;;;16.65;76.63
80624;BME280;70269;44.768;9.600;2023-05-29T06:38:05;97437.13;;;16.49;76.84
80624;BME280;70269;44.768;9.600;2023-05-29T06:40:31;97430.09;;;16.70;76.21
80624;BME280;70269;44.768;9.600;2023-05-29T06:42:57;97435.28;;;17.64;69.66
80624;BME280;70269;44.768;9.600;2023-05-29T06:45:36;97438.41;;;18.09;68.50
80624;BME280;70269;44.768;9.600;2023-05-29T06:48:02;97432.63;;;17.47;70.07
80624;BME280;70269;44.768;9.600;2023-05-29T06:50:27;97436.94;;;17.65;69.75
80624;BME280;70269;44.768;9.600;2023-05-29T06:52:54;97435.78;;;18.56;67.72
80624;BME280;70269;44.768;9.600;2023-05-29T06:55:27;97432.75;;;19.00;68.81
80624;BME280;70269;44.768;9.600;2023-05-29T06:57:55;97428.88;;;19.78;66.37
80624;BME280;70269;44.768;9.600;2023-05-29T07:00:22;97425.88;;;20.36;62.47
80624;BME280;70269;44.768;9.600;2023-05-29T07:03:18;97438.38;;;19.51;65.30
80624;BME280;70269;44.768;9.600;2023-05-29T07:05:44;97433.28;;;19.07;67.55
80624;BME280;70269;44.768;9.600;2023-05-29T07:08:10;97437.38;;;18.99;66.03
80624;BME280;70269;44.768;9.600;2023-05-29T07:10:35;97436.94;;;18.71;67.98
80624;BME280;70269;44.768;9.600;2023-05-29T07:13:01;97439.06;;;18.58;68.66
80624;BME280;70269;44.768;9.600;2023-05-29T07:15:27;97442.13;;;18.30;69.61
80624;BME280;70269;44.768;9.600;2023-05-29T07:17:53;97437.94;;;18.54;70.59
80624;BME280;70269;44.768;9.600;2023-05-29T07:20:23;97432.03;;;18.68;68.90
80624;BME280;70269;44.768;9.600;2023-05-29T07:22:49;97434.78;;;19.35;64.95
80624;BME280;70269;44.768;9.600;2023-05-29T07:25:14;97435.69;;;19.56;66.76
80624;BME280;70269;44.768;9.600;2023-05-29T07:27:40;97442.28;;;19.70;67.47
80624;BME280;70269;44.768;9.600;2023-05-29T07:30:06;97435.16;;;19.79;64.84
80624;BME280;70269;44.768;9.600;2023-05-29T07:32:34;97442.81;;;19.67;64.91
80624;BME280;70269;44.768;9.600;2023-05-29T07:35:00;97447.06;;;19.32;66.66
80624;BME280;70269;44.768;9.600;2023-05-29T07:37:25;97447.63;;;19.29;68.16
80624;BME280;70269;44.768;9.600;2023-05-29T07:39:52;97446.91;;;19.54;65.36
80624;BME280;70269;44.768;9.600;2023-05-29T07:42:49;97452.59;;;19.43;65.75
80624;BME280;70269;44.768;9.600;2023-05-29T07:45:16;97449.09;;;18.90;67.19
80624;BME280;70269;44.768;9.600;2023-05-29T07:47:41;97438.84;;;19.27;66.41
80624;BME280;70269;44.768;9.600;2023-05-29T07:50:08;97442.53;;;19.53;64.90
80624;BME280;70269;44.768;9.600;2023-05-29T07:52:34;97429.94;;;19.83;65.67
80624;BME280;70269;44.768;9.600;2023-05-29T07:55:00;97425.81;;;19.60;65.17
80624;BME280;70269;44.768;9.600;2023-05-29T07:57:28;97429.44;;;18.98;66.63
80624;BME280;70269;44.768;9.600;2023-05-29T07:59:55;97433.56;;;19.01;67.41
80624;BME280;70269;44.768;9.600;2023-05-29T08:02:21;97434.13;;;19.08;66.42
80624;BME280;70269;44.768;9.600;2023-05-29T08:05:25;97424.16;;;18.81;66.62
80624;BME280;70269;44.768;9.600;2023-05-29T08:07:51;97432.03;;;18.68;67.17
80624;BME280;70269;44.768;9.600;2023-05-29T08:10:17;97430.53;;;19.07;67.61
80624;BME280;70269;44.768;9.600;2023-05-29T08:12:43;97427.34;;;19.25;67.30
80624;BME280;70269;44.768;9.600;2023-05-29T08:15:09;97428.94;;;19.11;67.55
80624;BME280;70269;44.768;9.600;2023-05-29T08:17:36;97425.97;;;19.23;67.56
80624;BME280;70269;44.768;9.600;2023-05-29T08:20:02;97429.53;;;19.28;65.06
80624;BME280;70269;44.768;9.600;2023-05-29T08:22:32;97430.34;;;19.24;66.13
80624;BME280;70269;44.768;9.600;2023-05-29T08:24:59;97428.94;;;19.11;66.51
80624;BME280;70269;44.768;9.600;2023-05-29T08:27:24;97432.53;;;19.17;67.89
80624;BME280;70269;44.768;9.600;2023-05-29T08:29:50;97429.88;;;19.42;65.13
80624;BME280;70269;44.768;9.600;2023-05-29T08:32:16;97435.03;;;19.38;66.99
80624;BME280;70269;44.768;9.600;2023-05-29T08:34:41;97436.91;;;19.23;65.65
80624;BME280;70269;44.768;9.600;2023-05-29T08:37:07;97442.16;;;19.39;65.95
80624;BME280;70269;44.768;9.600;2023-05-29T08:39:32;97444.78;;;19.87;65.06
80624;BME280;70269;44.768;9.600;2023-05-29T08:44:30;97436.78;;;19.65;64.46
80624;BME280;70269;44.768;9.600;2023-05-29T08:46:58;97441.44;;;19.59;63.85
80624;BME280;70269;44.768;9.600;2023-05-29T08:49:28;97443.66;;;19.83;64.58
80624;BME280;70269;44.768;9.600;2023-05-29T08:52:03;97455.69;;;19.56;64.58
80624;BME280;70269;44.768;9.600;2023-05-29T08:54:31;97444.69;;;19.46;63.59
80624;BME280;70269;44.768;9.600;2023-05-29T08:56:57;97443.88;;;19.51;63.81
80624;BME280;70269;44.768;9.600;2023-05-29T08:59:25;97439.53;;;19.65;64.27
80624;BME280;70269;44.768;9.600;2023-05-29T09:01:51;97451.00;;;19.47;65.15
80624;BME280;70269;44.768;9.600;2023-05-29T09:04:16;97437.88;;;19.69;62.92
80624;BME280;70269;44.768;9.600;2023-05-29T09:06:42;97442.84;;;19.97;63.38
80624;BME280;70269;44.768;9.600;2023-05-29T09:09:08;97447.75;;;19.60;64.09
80624;BME280;70269;44.768;9.600;2023-05-29T09:11:35;97454.81;;;19.51;64.38
80624;BME280;70269;44.768;9.600;2023-05-29T09:14:00;97455.97;;;19.75;63.70
80624;BME280;70269;44.768;9.600;2023-05-29T09:16:27;97455.44;;;19.83;65.28
80624;BME280;70269;44.768;9.600;2023-05-29T09:19:04;97465.59;;;19.88;63.46
80624;BME280;70269;44.768;9.600;2023-05-29T09:21:31;97460.41;;;20.01;63.29
80624;BME280;70269;44.768;9.600;2023-05-29T09:24:05;97453.81;;;20.12;60.75
80624;BME280;70269;44.768;9.600;2023-05-29T09:26:31;97459.34;;;20.43;61.08
80624;BME280;70269;44.768;9.600;2023-05-29T09:28:58;97462.03;;;20.73;58.53
80624;BME280;70269;44.768;9.600;2023-05-29T09:31:24;97459.75;;;21.00;57.79
80624;BME280;70269;44.768;9.600;2023-05-29T09:33:50;97458.94;;;20.95;64.57
80624;BME280;70269;44.768;9.600;2023-05-29T09:36:22;97457.88;;;20.81;58.67
80624;BME280;70269;44.768;9.600;2023-05-29T09:38:48;97456.69;;;21.12;57.47
80624;BME280;70269;44.768;9.600;2023-05-29T09:41:21;97457.13;;;20.60;59.58
80624;BME280;70269;44.768;9.600;2023-05-29T09:43:51;97451.09;;;20.38;59.92
80624;BME280;70269;44.768;9.600;2023-05-29T09:46:16;97445.63;;;20.38;60.32
80624;BME280;70269;44.768;9.600;2023-05-29T09:48:44;97455.97;;;20.91;58.77
80624;BME280;70269;44.768;9.600;2023-05-29T09:51:22;97441.03;;;21.28;56.57
80624;BME280;70269;44.768;9.600;2023-05-29T09:53:48;97435.56;;;21.23;55.45
80624;BME280;70269;44.768;9.600;2023-05-29T09:56:16;97440.59;;;21.55;55.13
80624;BME280;70269;44.768;9.600;2023-05-29T09:58:43;97433.47;;;21.93;55.91
80624;BME280;70269;44.768;9.600;2023-05-29T10:01:15;97436.25;;;21.44;54.72
80624;BME280;70269;44.768;9.600;2023-05-29T10:03:41;97434.56;;;21.53;57.78
80624;BME280;70269;44.768;9.600;2023-05-29T10:06:12;97439.94;;;21.14;57.25
80624;BME280;70269;44.768;9.600;2023-05-29T10:08:45;97449.25;;;21.77;56.98
80624;BME280;70269;44.768;9.600;2023-05-29T10:11:18;97447.66;;;21.71;55.68
80624;BME280;70269;44.768;9.600;2023-05-29T10:13:51;97442.16;;;22.10;56.59
80624;BME280;70269;44.768;9.600;2023-05-29T10:18:50;97439.59;;;21.35;55.66
80624;BME280;70269;44.768;9.600;2023-05-29T10:21:21;97442.81;;;21.53;55.35
80624;BME280;70269;44.768;9.600;2023-05-29T10:23:48;97441.09;;;21.62;55.94
80624;BME280;70269;44.768;9.600;2023-05-29T10:26:18;97434.53;;;22.02;53.22
80624;BME280;70269;44.768;9.600;2023-05-29T10:28:51;97433.59;;;21.77;56.07
80624;BME280;70269;44.768;9.600;2023-05-29T10:31:24;97433.78;;;21.42;57.22
80624;BME280;70269;44.768;9.600;2023-05-29T10:37:54;97432.34;;;21.60;55.44
80624;BME280;70269;44.768;9.600;2023-05-29T10:40:12;97427.53;;;21.75;56.74
80624;BME280;70269;44.768;9.600;2023-05-29T10:45:04;97430.72;;;21.54;55.08
80624;BME280;70269;44.768;9.600;2023-05-29T10:47:30;97423.16;;;21.74;55.89
80624;BME280;70269;44.768;9.600;2023-05-29T10:49:59;97436.47;;;21.57;58.52
80624;BME280;70269;44.768;9.600;2023-05-29T10:52:25;97420.84;;;21.53;57.70
80624;BME280;70269;44.768;9.600;2023-05-29T10:54:54;97418.16;;;21.37;60.43
80624;BME280;70269;44.768;9.600;2023-05-29T10:57:24;97421.50;;;21.73;54.90
80624;BME280;70269;44.768;9.600;2023-05-29T11:00:02;97415.94;;;21.84;55.86
80624;BME280;70269;44.768;9.600;2023-05-29T11:02:31;97426.50;;;21.66;55.62
80624;BME280;70269;44.768;9.600;2023-05-29T11:05:18;97426.72;;;21.75;55.30
80624;BME280;70269;44.768;9.600;2023-05-29T11:07:51;97424.06;;;21.65;55.42
80624;BME280;70269;44.768;9.600;2023-05-29T11:13:06;97422.06;;;22.14;56.39
80624;BME280;70269;44.768;9.600;2023-05-29T11:15:32;97414.84;;;21.85;54.94
80624;BME280;70269;44.768;9.600;2023-05-29T11:18:06;97416.63;;;22.04;56.67
80624;BME280;70269;44.768;9.600;2023-05-29T11:20:50;97411.59;;;21.77;58.06
80624;BME280;70269;44.768;9.600;2023-05-29T11:23:18;97409.31;;;21.90;55.81
80624;BME280;70269;44.768;9.600;2023-05-29T11:25:46;97413.09;;;22.33;56.75
80624;BME280;70269;44.768;9.600;2023-05-29T11:28:13;97415.91;;;22.56;56.69
80624;BME280;70269;44.768;9.600;2023-05-29T11:30:45;97415.09;;;22.27;56.50
80624;BME280;70269;44.768;9.600;2023-05-29T11:33:30;97412.84;;;22.29;55.09
80624;BME280;70269;44.768;9.600;2023-05-29T11:35:59;97404.41;;;22.49;52.64
80624;BME280;70269;44.768;9.600;2023-05-29T11:38:25;97398.13;;;22.44;51.70
80624;BME280;70269;44.768;9.600;2023-05-29T11:40:53;97399.69;;;22.26;53.30
80624;BME280;70269;44.768;9.600;2023-05-29T11:43:19;97403.19;;;22.03;53.96
80624;BME280;70269;44.768;9.600;2023-05-29T11:45:45;97390.59;;;22.26;53.42
80624;BME280;70269;44.768;9.600;2023-05-29T11:48:11;97389.72;;;22.01;54.32
80624;BME280;70269;44.768;9.600;2023-05-29T11:50:36;97380.44;;;21.87;53.82
80624;BME280;70269;44.768;9.600;2023-05-29T11:53:02;97379.22;;;21.69;54.60
80624;BME280;70269;44.768;9.600;2023-05-29T11:55:28;97386.84;;;21.38;57.52
80624;BME280;70269;44.768;9.600;2023-05-29T11:57:58;97379.16;;;21.35;53.14
80624;BME280;70269;44.768;9.600;2023-05-29T12:00:25;97374.31;;;21.61;54.65
80624;BME280;70269;44.768;9.600;2023-05-29T12:02:51;97381.53;;;21.96;54.85
80624;BME280;70269;44.768;9.600;2023-05-29T12:05:17;97372.69;;;21.94;55.52
80624;BME280;70269;44.768;9.600;2023-05-29T12:07:48;97371.63;;;21.95;53.90
80624;BME280;70269;44.768;9.600;2023-05-29T12:10:19;97364.16;;;22.01;53.48
80624;BME280;70269;44.768;9.600;2023-05-29T12:12:53;97367.19;;;22.28;58.41
80624;BME280;70269;44.768;9.600;2023-05-29T12:15:19;97369.59;;;22.06;51.41
80624;BME280;70269;44.768;9.600;2023-05-29T12:17:47;97366.06;;;22.29;50.49
80624;BME280;70269;44.768;9.600;2023-05-29T12:20:13;97362.84;;;22.22;53.02
80624;BME280;70269;44.768;9.600;2023-05-29T12:22:42;97367.16;;;22.33;51.50
80624;BME280;70269;44.768;9.600;2023-05-29T12:25:16;97365.50;;;22.32;50.75
80624;BME280;70269;44.768;9.600;2023-05-29T12:27:43;97354.34;;;22.18;51.92
80624;BME280;70269;44.768;9.600;2023-05-29T12:32:44;97355.91;;;22.01;49.95
80624;BME280;70269;44.768;9.600;2023-05-29T12:35:17;97364.78;;;21.88;50.67
80624;BME280;70269;44.768;9.600;2023-05-29T12:37:45;97356.44;;;21.98;49.19
80624;BME280;70269;44.768;9.600;2023-05-29T12:40:20;97352.03;;;22.02;50.37
80624;BME280;70269;44.768;9.600;2023-05-29T12:42:47;97354.56;;;22.22;49.42
80624;BME280;70269;44.768;9.600;2023-05-29T12:45:14;97356.75;;;22.25;53.83
80624;BME280;70269;44.768;9.600;2023-05-29T12:47:55;97354.75;;;22.07;50.97
80624;BME280;70269;44.768;9.600;2023-05-29T12:50:29;97369.09;;;21.99;49.11
80624;BME280;70269;44.768;9.600;2023-05-29T12:52:57;97355.84;;;22.06;49.07
80624;BME280;70269;44.768;9.600;2023-05-29T12:55:23;97360.19;;;22.12;47.95
80624;BME280;70269;44.768;9.600;2023-05-29T12:57:49;97353.88;;;22.40;47.75
80624;BME280;70269;44.768;9.600;2023-05-29T13:00:15;97334.00;;;22.67;47.62
80624;BME280;70269;44.768;9.600;2023-05-29T13:02:40;97350.06;;;22.84;50.22
80624;BME280;70269;44.768;9.600;2023-05-29T13:05:06;97345.75;;;22.25;50.09
80624;BME280;70269;44.768;9.600;2023-05-29T13:07:33;97342.75;;;22.50;51.49
80624;BME280;70269;44.768;9.600;2023-05-29T13:10:01;97337.91;;;22.13;50.43
80624;BME280;70269;44.768;9.600;2023-05-29T13:12:27;97340.75;;;22.32;48.84
80624;BME280;70269;44.768;9.600;2023-05-29T13:14:53;97337.25;;;22.50;49.46
80624;BME280;70269;44.768;9.600;2023-05-29T13:17:21;97330.13;;;22.73;48.42
80624;BME280;70269;44.768;9.600;2023-05-29T13:19:46;97335.47;;;22.59;50.73
80624;BME280;70269;44.768;9.600;2023-05-29T13:22:12;97339.09;;;22.31;51.95
80624;BME280;70269;44.768;9.600;2023-05-29T13:24:37;97332.53;;;21.93;47.60